Terminal Aerodrome Forecast
Issued by NWS Wilmington, NC

Home | Current Version | Previous Version | Text Only | Print | Product List | Glossary On
Versions: 1 2 3 4 5 6 7 8 9 10 11 12 13
000
FTUS42 KILM 231100
TAFLBT
TAF
KLBT 231120Z 2312/2412 06004KT 5SM -RA BR SCT040 BKN070
     FM231300 07005KT 5SM -RA BKN020 OVC035
     FM231700 10010KT 2SM -RA BR BKN006 OVC012
     FM240000 17015KT 3SM -RA BR SCT004 BKN008 OVC012
     FM240500 21012KT P6SM VCSH BKN016=

USA.gov is the U.S. government's official web portal to all federal, state and local government web resources and services.